Time;durP1;ratioP1;P1;durP2;ratioP2;P2;SDS_P1;SDS_P2;PMS_P1;PMS_P2;Temp;Humidity;BMP_temperature;BMP_pressure;BME280_temperature;BME280_humidity;BME280_pressure;Samples;Min_cycle;Max_cycle;Signal;HPM_P1;HPM_P2
2023/08/03 00:01:02;;;;;;;1999.90;999.90;;;18.00;99.90;;;;;;4991274;28;20434;-71
2023/08/03 00:03:29;;;;;;;1999.90;999.90;;;17.90;99.90;;;;;;4994169;28;20438;-72
2023/08/03 00:05:56;;;;;;;1999.90;999.90;;;18.00;99.90;;;;;;4991068;28;20810;-72
2023/08/03 00:08:22;;;;;;;1999.90;999.90;;;18.10;99.90;;;;;;4997363;28;20437;-71
2023/08/03 00:10:50;;;;;;;1999.90;999.90;;;18.00;99.90;;;;;;4991761;28;20445;-73
2023/08/03 00:13:17;;;;;;;1999.90;999.90;;;18.00;99.90;;;;;;4995660;28;20441;-72
2023/08/03 00:15:44;;;;;;;1999.90;999.90;;;18.00;99.90;;;;;;4989547;28;20445;-72
2023/08/03 00:18:11;;;;;;;1999.90;999.90;;;18.10;99.90;;;;;;4986041;28;20446;-71
2023/08/03 00:20:37;;;;;;;1999.90;999.90;;;18.10;99.90;;;;;;4993414;28;20433;-72
2023/08/03 00:23:04;;;;;;;1999.90;999.90;;;18.10;99.90;;;;;;5000655;28;20434;-72
2023/08/03 00:25:31;;;;;;;1999.90;999.90;;;18.10;99.90;;;;;;4989277;28;20435;-71
2023/08/03 00:27:59;;;;;;;1999.90;999.90;;;18.20;99.90;;;;;;4990071;28;20443;-71
2023/08/03 00:30:26;;;;;;;1999.90;999.90;;;18.20;99.90;;;;;;4991224;28;20442;-71
2023/08/03 00:32:52;;;;;;;1999.90;999.90;;;18.20;99.90;;;;;;4998365;28;20434;-74
2023/08/03 00:35:19;;;;;;;1999.90;999.90;;;18.30;99.90;;;;;;4990937;28;20444;-72
2023/08/03 00:37:46;;;;;;;1999.90;999.90;;;18.30;99.90;;;;;;4990156;28;20908;-72
2023/08/03 00:40:13;;;;;;;1999.90;999.90;;;18.20;99.90;;;;;;4991238;28;20441;-72
2023/08/03 00:42:40;;;;;;;1999.90;999.90;;;18.30;99.90;;;;;;4990997;28;20449;-72
2023/08/03 00:45:11;;;;;;;1999.90;999.90;;;18.30;99.90;;;;;;4991207;28;20810;-72
2023/08/03 00:47:38;;;;;;;1999.90;999.90;;;18.30;99.90;;;;;;4992245;28;20500;-72
2023/08/03 00:50:06;;;;;;;1999.90;999.90;;;18.30;99.90;;;;;;4991094;28;20430;-74
2023/08/03 00:52:34;;;;;;;1999.90;999.90;;;18.30;99.90;;;;;;4992704;28;20441;-71
2023/08/03 00:55:00;;;;;;;1999.90;999.90;;;18.20;99.90;;;;;;4990046;28;20489;-71
2023/08/03 00:57:28;;;;;;;1999.90;999.90;;;18.20;99.90;;;;;;4993129;28;20438;-71
2023/08/03 00:59:56;;;;;;;1999.90;999.90;;;18.20;99.90;;;;;;4984013;28;20433;-71
2023/08/03 01:02:24;;;;;;;1999.90;999.90;;;18.20;99.90;;;;;;4991721;28;20438;-72
2023/08/03 01:04:50;;;;;;;1999.90;999.90;;;18.20;99.90;;;;;;4989445;28;20461;-71
2023/08/03 01:07:17;;;;;;;1999.90;999.90;;;18.30;99.90;;;;;;4993562;28;20449;-71
2023/08/03 01:09:44;;;;;;;1999.90;999.90;;;18.20;99.90;;;;;;4988295;28;20430;-72
2023/08/03 01:12:11;;;;;;;1999.90;999.90;;;18.20;99.90;;;;;;4993237;28;20462;-73
2023/08/03 01:14:38;;;;;;;1999.90;999.90;;;18.30;99.90;;;;;;4991500;28;20442;-72
2023/08/03 01:17:05;;;;;;;1999.90;999.90;;;18.30;99.90;;;;;;4990646;28;20434;-71
2023/08/03 01:19:33;;;;;;;1999.90;999.90;;;18.30;99.90;;;;;;4990177;28;20430;-72
2023/08/03 01:22:01;;;;;;;1999.90;999.90;;;18.30;99.90;;;;;;4990882;28;20457;-71
2023/08/03 01:24:30;;;;;;;1999.90;999.90;;;18.40;99.90;;;;;;4990437;28;20445;-72
2023/08/03 01:26:59;;;;;;;1999.90;999.90;;;18.40;99.90;;;;;;4991431;28;20853;-72
2023/08/03 01:29:26;;;;;;;1999.90;999.90;;;18.30;99.90;;;;;;4989938;28;20430;-71
2023/08/03 01:31:56;;;;;;;1999.90;999.90;;;18.40;99.90;;;;;;4997058;28;20449;-72
2023/08/03 01:34:23;;;;;;;1999.90;999.90;;;18.50;99.90;;;;;;4990989;28;20978;-72
2023/08/03 01:36:50;;;;;;;1999.90;999.90;;;18.50;99.90;;;;;;4992354;28;20959;-72
2023/08/03 01:39:17;;;;;;;1999.90;999.90;;;18.50;99.90;;;;;;4989361;28;20510;-72
2023/08/03 01:41:45;;;;;;;1999.90;999.90;;;18.60;99.90;;;;;;4992987;28;20438;-71
2023/08/03 01:44:25;;;;;;;1999.90;999.90;;;18.70;99.90;;;;;;4994743;28;20441;-72
2023/08/03 01:46:53;;;;;;;1999.90;999.90;;;18.60;99.90;;;;;;4994584;28;20446;-72
2023/08/03 01:49:21;;;;;;;1999.90;999.90;;;18.60;99.90;;;;;;4990972;28;20466;-72
2023/08/03 01:51:47;;;;;;;1999.90;999.90;;;18.60;99.90;;;;;;5000253;28;20817;-72
2023/08/03 01:54:14;;;;;;;1999.90;999.90;;;18.60;99.90;;;;;;4993930;28;20453;-71
2023/08/03 01:56:41;;;;;;;1999.90;999.90;;;18.50;99.90;;;;;;4997861;28;20437;-71
2023/08/03 01:59:10;;;;;;;1999.90;999.90;;;18.40;99.90;;;;;;4992269;28;20921;-71
2023/08/03 02:01:36;;;;;;;1999.90;999.90;;;18.40;99.90;;;;;;4994258;28;20449;-72
2023/08/03 02:04:03;;;;;;;1999.90;999.90;;;18.40;99.90;;;;;;4993861;28;20434;-71
2023/08/03 02:06:30;;;;;;;1999.90;999.90;;;18.40;99.90;;;;;;4997895;28;20438;-72
2023/08/03 02:08:57;;;;;;;1999.90;999.90;;;18.50;99.90;;;;;;4996127;28;20449;-71
2023/08/03 02:11:24;;;;;;;1999.90;999.90;;;18.60;99.90;;;;;;4994062;28;20522;-72
2023/08/03 02:13:50;;;;;;;1999.90;999.90;;;18.50;99.90;;;;;;4993064;28;20445;-72
2023/08/03 02:16:18;;;;;;;1999.90;999.90;;;18.30;99.90;;;;;;4998511;28;20434;-72
2023/08/03 02:18:45;;;;;;;1999.90;999.90;;;18.20;99.90;;;;;;4993270;28;20496;-72
2023/08/03 02:21:12;;;;;;;1999.90;999.90;;;18.00;99.90;;;;;;4993372;28;20493;-72
2023/08/03 02:23:39;;;;;;;1999.90;999.90;;;17.80;99.90;;;;;;4993034;28;20434;-71
2023/08/03 02:26:05;;;;;;;1999.90;999.90;;;17.80;99.90;;;;;;4998952;28;20438;-72
2023/08/03 02:28:33;;;;;;;1999.90;999.90;;;17.80;99.90;;;;;;4992992;28;20857;-71
2023/08/03 02:31:00;;;;;;;1999.90;999.90;;;17.80;99.90;;;;;;4992709;28;20434;-72
2023/08/03 02:33:28;;;;;;;1999.90;999.90;;;17.90;99.90;;;;;;4993120;28;20929;-71
2023/08/03 02:35:55;;;;;;;1999.90;999.90;;;18.00;99.90;;;;;;4992342;28;20438;-72
2023/08/03 02:38:21;;;;;;;1999.90;999.90;;;18.00;99.90;;;;;;4992255;28;20950;-72
2023/08/03 02:40:48;;;;;;;1999.90;999.90;;;18.00;99.90;;;;;;4992048;28;20865;-72
2023/08/03 02:43:15;;;;;;;1999.90;999.90;;;18.20;99.90;;;;;;4992855;28;20442;-72
2023/08/03 02:45:41;;;;;;;1999.90;999.90;;;18.10;99.90;;;;;;4991149;28;20799;-72
2023/08/03 02:48:08;;;;;;;1999.90;999.90;;;18.20;99.90;;;;;;4992102;28;20434;-72
2023/08/03 02:50:36;;;;;;;1999.90;999.90;;;17.80;99.90;;;;;;4991915;28;20442;-72
2023/08/03 02:53:03;;;;;;;1999.90;999.90;;;17.60;99.90;;;;;;4991238;28;20430;-72
2023/08/03 02:55:30;;;;;;;1999.90;999.90;;;17.60;99.90;;;;;;4996584;28;20465;-72
2023/08/03 02:57:56;;;;;;;1999.90;999.90;;;17.70;99.90;;;;;;4992296;28;20445;-72
2023/08/03 03:00:23;;;;;;;1999.90;999.90;;;17.70;99.90;;;;;;4992265;28;20444;-72
2023/08/03 03:02:50;;;;;;;1999.90;999.90;;;17.60;99.90;;;;;;4992647;28;20438;-72
2023/08/03 03:05:16;;;;;;;1999.90;999.90;;;17.60;99.90;;;;;;4998240;28;20438;-71
2023/08/03 03:07:44;;;;;;;1999.90;999.90;;;17.60;99.90;;;;;;4990986;28;20438;-72
2023/08/03 03:10:13;;;;;;;1999.90;999.90;;;17.40;99.90;;;;;;4991112;28;20934;-72
2023/08/03 03:12:40;;;;;;;1999.90;999.90;;;17.40;99.90;;;;;;4991784;28;20445;-72
2023/08/03 03:15:07;;;;;;;1999.90;999.90;;;17.50;99.90;;;;;;4997608;28;20455;-72
2023/08/03 03:17:34;;;;;;;1999.90;999.90;;;17.70;99.90;;;;;;4992312;28;20926;-71
2023/08/03 03:20:01;;;;;;;1999.90;999.90;;;17.80;99.90;;;;;;4985619;28;20434;-71
2023/08/03 03:22:28;;;;;;;1999.90;999.90;;;17.80;99.90;;;;;;4991361;28;20445;-72
2023/08/03 03:24:56;;;;;;;1999.90;999.90;;;17.90;99.90;;;;;;4991268;28;20449;-72
2023/08/03 03:27:24;;;;;;;1999.90;999.90;;;18.10;99.90;;;;;;4989303;28;21516;-72
2023/08/03 03:29:51;;;;;;;1999.90;999.90;;;18.00;99.90;;;;;;4991390;28;20441;-72
2023/08/03 03:32:17;;;;;;;1999.90;999.90;;;18.00;99.90;;;;;;4991538;28;20918;-72
2023/08/03 03:34:44;;;;;;;1999.90;999.90;;;17.90;99.90;;;;;;4995275;28;20442;-72
2023/08/03 03:37:11;;;;;;;1999.90;999.90;;;17.80;99.90;;;;;;4989868;28;20434;-72
2023/08/03 03:39:38;;;;;;;1999.90;999.90;;;17.80;99.90;;;;;;4990903;28;20926;-72
2023/08/03 03:42:07;;;;;;;1999.90;999.90;;;17.70;99.90;;;;;;4991561;28;20639;-72
2023/08/03 03:44:34;;;;;;;1999.90;999.90;;;17.70;99.90;;;;;;4997177;28;20447;-72
2023/08/03 03:47:01;;;;;;;1999.90;999.90;;;17.70;99.90;;;;;;4989984;28;20477;-71
2023/08/03 03:49:28;;;;;;;1999.90;999.90;;;17.70;99.90;;;;;;4989669;28;20970;-72
2023/08/03 03:51:54;;;;;;;1999.90;999.90;;;17.70;99.90;;;;;;4991618;28;20430;-72
2023/08/03 03:54:21;;;;;;;1999.90;999.90;;;17.70;99.90;;;;;;4990246;28;20438;-71
2023/08/03 03:56:48;;;;;;;1999.90;999.90;;;17.70;99.90;;;;;;4981832;28;20435;-72
2023/08/03 03:59:16;;;;;;;1999.90;999.90;;;17.70;99.90;;;;;;4985733;28;20457;-71
2023/08/03 04:01:43;;;;;;;1999.90;999.90;;;17.70;99.90;;;;;;4991288;28;20430;-72
2023/08/03 04:04:09;;;;;;;1999.90;999.90;;;17.60;99.90;;;;;;4990077;28;20922;-72
2023/08/03 04:06:36;;;;;;;1999.90;999.90;;;17.70;99.90;;;;;;4992133;28;20449;-70
2023/08/03 04:09:03;;;;;;;1999.90;999.90;;;17.60;99.90;;;;;;4988595;28;20470;-71
2023/08/03 04:11:30;;;;;;;1999.90;999.90;;;17.70;99.90;;;;;;5003000;28;20487;-72
2023/08/03 04:13:56;;;;;;;1999.90;999.90;;;17.70;99.90;;;;;;4994976;28;20956;-71
2023/08/03 04:16:24;;;;;;;1999.90;999.90;;;17.80;99.90;;;;;;4992836;28;20463;-71
2023/08/03 04:18:51;;;;;;;1999.90;999.90;;;17.80;99.90;;;;;;4992543;28;20934;-72
2023/08/03 04:21:18;;;;;;;1999.90;999.90;;;17.80;99.90;;;;;;4991587;28;20438;-72
2023/08/03 04:23:45;;;;;;;1999.90;999.90;;;17.70;99.90;;;;;;4988982;28;20438;-71
2023/08/03 04:26:11;;;;;;;1999.90;999.90;;;17.70;99.90;;;;;;5005906;28;20433;-72
2023/08/03 04:28:38;;;;;;;1999.90;999.90;;;17.70;99.90;;;;;;4995471;28;20441;-71
2023/08/03 04:31:05;;;;;;;1999.90;999.90;;;17.80;99.90;;;;;;4996660;28;20429;-72
2023/08/03 04:33:33;;;;;;;1999.90;999.90;;;18.00;99.90;;;;;;4990908;28;20438;-71
2023/08/03 04:36:00;;;;;;;1999.90;999.90;;;17.90;99.90;;;;;;5002048;28;20462;-72
2023/08/03 04:38:27;;;;;;;1999.90;999.90;;;17.90;99.90;;;;;;5013544;23;20434;-71
2023/08/03 04:40:54;;;;;;;1999.90;999.90;;;17.90;99.90;;;;;;4994540;28;20973;-70
2023/08/03 04:43:21;;;;;;;1999.90;999.90;;;17.90;99.90;;;;;;4991519;28;20434;-71
2023/08/03 04:45:47;;;;;;;1999.90;999.90;;;17.90;99.90;;;;;;4992541;28;20436;-72
2023/08/03 04:48:14;;;;;;;1999.90;999.90;;;17.90;99.90;;;;;;4993455;28;20445;-71
2023/08/03 04:50:42;;;;;;;1999.90;999.90;;;17.90;99.90;;;;;;5003168;28;20429;-71
2023/08/03 04:53:09;;;;;;;1999.90;999.90;;;17.90;99.90;;;;;;4997072;28;20454;-70
2023/08/03 04:55:36;;;;;;;1999.90;999.90;;;17.80;99.90;;;;;;5000634;28;20433;-70
2023/08/03 04:58:03;;;;;;;1999.90;999.90;;;17.80;99.90;;;;;;4991735;28;20442;-71
2023/08/03 05:00:29;;;;;;;1999.90;999.90;;;17.90;99.90;;;;;;4991991;28;20438;-70
2023/08/03 05:02:56;;;;;;;1999.90;999.90;;;17.90;99.90;;;;;;4984395;28;20436;-71
2023/08/03 05:05:23;;;;;;;1999.90;999.90;;;17.90;99.90;;;;;;5004159;28;20432;-71
2023/08/03 05:07:51;;;;;;;1999.90;999.90;;;17.90;99.90;;;;;;4993285;28;20445;-71
2023/08/03 05:10:18;;;;;;;1999.90;999.90;;;18.10;99.90;;;;;;4991464;28;20437;-70
2023/08/03 05:12:44;;;;;;;1999.90;999.90;;;18.00;99.90;;;;;;4994340;28;20448;-70
2023/08/03 05:15:11;;;;;;;1999.90;999.90;;;18.10;99.90;;;;;;4990623;28;20457;-70
2023/08/03 05:17:38;;;;;;;1999.90;999.90;;;18.10;99.90;;;;;;4999817;28;20442;-70
2023/08/03 05:20:05;;;;;;;1999.90;999.90;;;18.10;99.90;;;;;;4998961;28;20438;-70
2023/08/03 05:22:32;;;;;;;1999.90;999.90;;;18.10;99.90;;;;;;5000027;28;21084;-71
2023/08/03 05:25:00;;;;;;;1999.90;999.90;;;18.20;99.90;;;;;;4996631;28;20426;-68
2023/08/03 05:27:27;;;;;;;1999.90;999.90;;;18.30;99.90;;;;;;4993752;28;20442;-70
2023/08/03 05:29:55;;;;;;;1999.90;999.90;;;18.30;99.90;;;;;;5002591;28;20442;-70
2023/08/03 05:32:25;;;;;;;1999.90;999.90;;;18.30;99.90;;;;;;5007955;28;20435;-71
2023/08/03 05:34:52;;;;;;;1999.90;999.90;;;18.30;99.90;;;;;;4997215;28;20436;-71
2023/08/03 05:37:19;;;;;;;1999.90;999.90;;;18.30;99.90;;;;;;4996141;28;20442;-71
2023/08/03 05:39:46;;;;;;;1999.90;999.90;;;18.40;99.90;;;;;;4986911;28;20438;-70
2023/08/03 05:42:15;;;;;;;1999.90;999.90;;;18.60;99.90;;;;;;4991534;28;20414;-70
2023/08/03 05:44:42;;;;;;;1999.90;999.90;;;18.70;99.90;;;;;;4999035;28;20485;-71
2023/08/03 05:47:11;;;;;;;1999.90;999.90;;;18.70;99.90;;;;;;5002951;28;20433;-71
2023/08/03 05:49:38;;;;;;;1999.90;999.90;;;18.90;99.90;;;;;;4995568;28;20461;-69
2023/08/03 05:52:06;;;;;;;1999.90;999.90;;;19.10;99.90;;;;;;4995149;28;20438;-71
2023/08/03 05:54:33;;;;;;;1999.90;999.90;;;19.20;99.90;;;;;;4995379;28;20434;-71
2023/08/03 05:57:00;;;;;;;1999.90;999.90;;;19.30;99.90;;;;;;4998225;28;20438;-68
2023/08/03 05:59:28;;;;;;;1999.90;999.90;;;19.20;99.90;;;;;;4991788;28;21701;-71
2023/08/03 06:01:55;;;;;;;1999.90;999.90;;;19.30;99.90;;;;;;5004119;28;20432;-70
2023/08/03 06:04:21;;;;;;;1999.90;999.90;;;19.50;99.90;;;;;;4995156;28;20925;-70
2023/08/03 06:06:48;;;;;;;1999.90;999.90;;;19.50;99.90;;;;;;4994360;28;20438;-71
2023/08/03 06:09:15;;;;;;;1999.90;999.90;;;19.40;99.90;;;;;;4992956;28;20453;-71
2023/08/03 06:11:42;;;;;;;1999.90;999.90;;;19.50;99.90;;;;;;4998656;28;20428;-70
2023/08/03 06:14:13;;;;;;;1999.90;999.90;;;19.50;99.90;;;;;;5001309;28;20441;-70
2023/08/03 06:16:44;;;;;;;1999.90;999.90;;;19.60;99.90;;;;;;5000487;28;20436;-70
2023/08/03 06:19:11;;;;;;;1999.90;999.90;;;19.80;99.90;;;;;;4995103;28;20439;-69
2023/08/03 06:21:38;;;;;;;1999.90;999.90;;;19.90;99.90;;;;;;4994172;28;20445;-70
2023/08/03 06:24:05;;;;;;;1999.90;999.90;;;20.20;99.90;;;;;;4986628;28;20442;-71
2023/08/03 06:26:33;;;;;;;1999.90;999.90;;;20.00;99.90;;;;;;4990479;28;20434;-70
2023/08/03 06:29:01;;;;;;;1999.90;999.90;;;20.40;99.90;;;;;;5001685;28;20454;-71
2023/08/03 06:31:33;;;;;;;1999.90;999.90;;;20.50;99.90;;;;;;5004725;28;20451;-71
2023/08/03 06:34:02;;;;;;;1999.90;999.90;;;20.20;99.90;;;;;;4998687;28;20472;-71
2023/08/03 06:36:29;;;;;;;1999.90;999.90;;;20.50;99.90;;;;;;4992676;28;20438;-70
2023/08/03 06:38:57;;;;;;;1999.90;999.90;;;20.70;99.90;;;;;;4990843;28;20456;-71
2023/08/03 06:41:24;;;;;;;1999.90;999.90;;;20.80;99.90;;;;;;4999427;28;20436;-71
2023/08/03 06:43:51;;;;;;;1999.90;999.90;;;20.90;99.90;;;;;;5003899;28;20443;-71
2023/08/03 06:46:18;;;;;;;1999.90;999.90;;;20.80;99.90;;;;;;4999112;28;20441;-71
2023/08/03 06:48:45;;;;;;;1999.90;999.90;;;20.50;99.90;;;;;;4994149;28;20438;-69
2023/08/03 06:51:13;;;;;;;1999.90;999.90;;;20.50;99.90;;;;;;4992230;28;20960;-69
2023/08/03 06:53:40;;;;;;;1999.90;999.90;;;20.40;99.90;;;;;;4992801;28;20424;-69
2023/08/03 06:56:07;;;;;;;1999.90;999.90;;;20.70;99.90;;;;;;4992540;28;20440;-68
2023/08/03 06:58:34;;;;;;;1999.90;999.90;;;20.50;99.90;;;;;;5000366;28;20447;-69
2023/08/03 07:01:01;;;;;;;1999.90;999.90;;;20.30;99.90;;;;;;4992619;28;20439;-69
2023/08/03 07:03:28;;;;;;;1999.90;999.90;;;20.50;99.90;;;;;;4997691;28;20438;-69
2023/08/03 07:05:54;;;;;;;1999.90;999.90;;;20.80;99.90;;;;;;4995683;28;20437;-69
2023/08/03 07:08:23;;;;;;;1999.90;999.90;;;20.50;99.90;;;;;;4994651;28;20850;-72
2023/08/03 07:10:49;;;;;;;1999.90;999.90;;;20.70;99.90;;;;;;4990484;28;20445;-70
2023/08/03 07:13:16;;;;;;;1999.90;999.90;;;20.70;99.90;;;;;;5007530;28;20436;-69
2023/08/03 07:15:43;;;;;;;1999.90;999.90;;;20.80;99.90;;;;;;4997745;28;20440;-69
2023/08/03 07:18:10;;;;;;;1999.90;999.90;;;21.00;99.90;;;;;;5000010;28;20445;-74
2023/08/03 07:20:37;;;;;;;1999.90;999.90;;;21.10;99.90;;;;;;4998540;28;20928;-74
2023/08/03 07:23:05;;;;;;;1999.90;999.90;;;21.30;99.90;;;;;;4994600;28;20434;-74
2023/08/03 07:25:34;;;;;;;1999.90;999.90;;;21.10;99.90;;;;;;5001364;28;20440;-73
2023/08/03 07:28:01;;;;;;;1999.90;999.90;;;20.70;99.90;;;;;;5004228;28;20936;-74
2023/08/03 07:30:28;;;;;;;1999.90;999.90;;;20.60;99.90;;;;;;4997890;28;20430;-73
2023/08/03 07:32:57;;;;;;;1999.90;999.90;;;20.90;99.90;;;;;;5001059;28;20522;-73
2023/08/03 07:35:24;;;;;;;1999.90;999.90;;;21.00;99.90;;;;;;4994651;28;20520;-73
2023/08/03 07:37:50;;;;;;;1999.90;999.90;;;21.00;99.90;;;;;;4989103;28;20434;-73
2023/08/03 07:40:17;;;;;;;1999.90;999.90;;;21.50;99.90;;;;;;5001916;28;20453;-74
2023/08/03 07:42:45;;;;;;;1999.90;999.90;;;21.30;99.90;;;;;;4998037;28;20438;-73
2023/08/03 07:45:12;;;;;;;1999.90;999.90;;;21.50;99.90;;;;;;4987372;28;20434;-73
2023/08/03 07:47:39;;;;;;;1999.90;999.90;;;21.30;99.90;;;;;;4996713;28;20818;-73
2023/08/03 07:50:07;;;;;;;1999.90;999.90;;;21.20;99.90;;;;;;4993761;28;20437;-73
2023/08/03 07:52:33;;;;;;;1999.90;999.90;;;20.80;99.90;;;;;;4994235;28;20797;-73
2023/08/03 07:55:00;;;;;;;1999.90;999.90;;;20.80;99.90;;;;;;4990989;28;20443;-73
2023/08/03 07:57:27;;;;;;;1999.90;999.90;;;20.80;99.90;;;;;;5005878;28;20436;-74
2023/08/03 07:59:55;;;;;;;1999.90;999.90;;;21.30;99.90;;;;;;4996285;28;20436;-73
2023/08/03 08:02:22;;;;;;;1999.90;999.90;;;21.40;99.90;;;;;;4992810;28;20457;-74
2023/08/03 08:04:50;;;;;;;1999.90;999.90;;;21.70;99.90;;;;;;4991634;28;20522;-73
2023/08/03 08:07:17;;;;;;;1999.90;999.90;;;21.90;99.90;;;;;;4988013;28;21028;-73
2023/08/03 08:09:44;;;;;;;1999.90;999.90;;;21.80;99.90;;;;;;4987153;28;20410;-74
2023/08/03 08:12:11;;;;;;;1999.90;999.90;;;21.70;99.90;;;;;;4996138;28;20441;-74
2023/08/03 08:14:37;;;;;;;1999.90;999.90;;;20.70;99.90;;;;;;5001846;28;21352;-73
2023/08/03 08:17:06;;;;;;;1999.90;999.90;;;20.40;99.90;;;;;;5000337;28;20431;-73
2023/08/03 08:19:32;;;;;;;1999.90;999.90;;;20.70;99.90;;;;;;4991679;28;20434;-73
2023/08/03 08:21:59;;;;;;;1999.90;999.90;;;20.50;99.90;;;;;;4997032;28;20436;-73
2023/08/03 08:24:26;;;;;;;1999.90;999.90;;;20.60;99.90;;;;;;5005940;28;20945;-74
2023/08/03 08:26:53;;;;;;;1999.90;999.90;;;20.30;99.90;;;;;;4990888;28;20438;-73
2023/08/03 08:29:20;;;;;;;1999.90;999.90;;;20.60;99.90;;;;;;4996591;28;20442;-65
2023/08/03 08:31:47;;;;;;;1999.90;999.90;;;20.90;99.90;;;;;;4995028;28;20445;-66
2023/08/03 08:34:15;;;;;;;1999.90;999.90;;;20.90;99.90;;;;;;4997474;28;20934;-65
2023/08/03 08:36:42;;;;;;;1999.90;999.90;;;20.40;99.90;;;;;;4995293;28;20445;-65
2023/08/03 08:39:08;;;;;;;1999.90;999.90;;;20.30;99.90;;;;;;4989222;28;20434;-65
2023/08/03 08:41:39;;;;;;;1999.90;999.90;;;20.20;99.90;;;;;;4990749;28;20410;-65
2023/08/03 08:44:06;;;;;;;1999.90;999.90;;;20.40;99.90;;;;;;4991201;28;20414;-65
2023/08/03 08:46:33;;;;;;;1999.90;999.90;;;20.50;99.90;;;;;;4990021;28;20422;-66
2023/08/03 08:48:59;;;;;;;1999.90;999.90;;;21.20;99.90;;;;;;4988154;28;20418;-65
2023/08/03 08:51:28;;;;;;;1999.90;999.90;;;21.30;99.90;;;;;;4995028;28;20430;-65
2023/08/03 08:53:55;;;;;;;1999.90;999.90;;;21.10;99.90;;;;;;4995031;28;20421;-65
2023/08/03 08:56:22;;;;;;;1999.90;999.90;;;20.80;99.90;;;;;;4994759;28;20410;-67
2023/08/03 08:58:49;;;;;;;1999.90;999.90;;;20.90;99.90;;;;;;4993587;28;20484;-67
2023/08/03 09:01:15;;;;;;;1999.90;999.90;;;21.00;99.90;;;;;;4996370;28;20818;-67
2023/08/03 09:03:51;;;;;;;1999.90;999.90;;;21.00;99.90;;;;;;5006331;28;20440;-65
2023/08/03 09:06:19;;;;;;;1999.90;999.90;;;21.10;99.90;;;;;;4997048;28;20438;-65
2023/08/03 09:08:55;;;;;;;1999.90;999.90;;;21.00;99.90;;;;;;4996169;28;20491;-65
2023/08/03 09:11:38;;;;;;;1999.90;999.90;;;20.90;99.90;;;;;;5006088;28;20817;-65
2023/08/03 09:14:07;;;;;;;1999.90;999.90;;;21.00;99.90;;;;;;4999628;28;20483;-66
2023/08/03 09:16:33;;;;;;;1999.90;999.90;;;21.60;99.90;;;;;;5000038;28;20989;-65
2023/08/03 09:19:00;;;;;;;1999.90;999.90;;;22.10;99.90;;;;;;4991043;28;20440;-65
2023/08/03 09:21:27;;;;;;;1999.90;999.90;;;22.30;99.90;;;;;;4989747;28;20441;-66
2023/08/03 09:23:56;;;;;;;1999.90;999.90;;;22.10;99.90;;;;;;4994372;28;20415;-65
2023/08/03 09:26:24;;;;;;;1999.90;999.90;;;22.10;99.90;;;;;;5004091;28;20468;-65
2023/08/03 09:28:51;;;;;;;1999.90;999.90;;;22.00;99.90;;;;;;5004871;28;20443;-65
2023/08/03 09:31:24;;;;;;;1999.90;999.90;;;21.70;99.90;;;;;;4994699;28;20443;-66
2023/08/03 09:33:58;;;;;;;1999.90;999.90;;;21.40;99.90;;;;;;4991849;28;20442;-65
2023/08/03 09:36:26;;;;;;;1999.90;999.90;;;21.90;99.90;;;;;;5008664;28;20463;-65
2023/08/03 09:39:09;;;;;;;1999.90;999.90;;;21.70;99.90;;;;;;5002862;28;20808;-65
2023/08/03 09:41:37;;;;;;;1999.90;999.90;;;21.60;99.90;;;;;;4991819;28;20456;-65
2023/08/03 09:44:06;;;;;;;1999.90;999.90;;;21.40;99.90;;;;;;4995948;28;20446;-66
2023/08/03 09:46:33;;;;;;;1999.90;999.90;;;21.50;99.90;;;;;;5000695;28;20438;-65
2023/08/03 09:49:01;;;;;;;1999.90;999.90;;;21.50;99.90;;;;;;5004947;28;20432;-65
2023/08/03 09:51:30;;;;;;;1999.90;999.90;;;21.80;99.90;;;;;;4995417;28;20442;-65
2023/08/03 09:54:04;;;;;;;1999.90;999.90;;;21.60;99.90;;;;;;4998206;28;20476;-65
2023/08/03 09:56:36;;;;;;;1999.90;999.90;;;21.80;99.90;;;;;;4993745;28;20438;-65
2023/08/03 09:59:07;;;;;;;1999.90;999.90;;;21.70;99.90;;;;;;4999136;28;20516;-65
2023/08/03 10:01:38;;;;;;;1999.90;999.90;;;21.40;99.90;;;;;;4991738;28;20441;-66
2023/08/03 10:04:07;;;;;;;1999.90;999.90;;;21.20;99.90;;;;;;5001635;28;20433;-66
2023/08/03 10:06:35;;;;;;;1999.90;999.90;;;21.00;99.90;;;;;;4996737;28;20439;-65
2023/08/03 10:09:06;;;;;;;1999.90;999.90;;;20.80;99.90;;;;;;4991397;28;20931;-66
2023/08/03 10:11:37;;;;;;;1999.90;999.90;;;20.90;99.90;;;;;;4987596;28;20914;-66
2023/08/03 10:14:05;;;;;;;1999.90;999.90;;;20.90;99.90;;;;;;5004299;28;20433;-65
2023/08/03 10:16:34;;;;;;;1999.90;999.90;;;20.50;99.90;;;;;;4998442;28;20445;-65
2023/08/03 10:19:01;;;;;;;1999.90;999.90;;;20.00;99.90;;;;;;4994157;28;20497;-67
2023/08/03 10:21:30;;;;;;;1999.90;999.90;;;19.80;99.90;;;;;;4996041;28;20444;-67
2023/08/03 10:24:12;;;;;;;1999.90;999.90;;;19.80;99.90;;;;;;5006863;28;20439;-67
2023/08/03 10:26:39;;;;;;;1999.90;999.90;;;19.90;99.90;;;;;;4994813;28;20457;-67
2023/08/03 10:29:06;;;;;;;1999.90;999.90;;;20.20;99.90;;;;;;4996518;28;20434;-67
2023/08/03 10:31:33;;;;;;;1999.90;999.90;;;20.20;99.90;;;;;;4996853;28;20436;-67
2023/08/03 10:34:08;;;;;;;1999.90;999.90;;;20.30;99.90;;;;;;5008865;28;20443;-67
2023/08/03 10:36:43;;;;;;;1999.90;999.90;;;20.60;99.90;;;;;;4993349;28;20458;-66
2023/08/03 10:39:15;;;;;;;1999.90;999.90;;;21.30;99.90;;;;;;5002544;23;20539;-67
2023/08/03 10:41:44;;;;;;;1999.90;999.90;;;21.40;99.90;;;;;;4992591;28;20450;-67
2023/08/03 10:44:27;;;;;;;1999.90;999.90;;;21.40;99.90;;;;;;4989824;28;20436;-66
2023/08/03 10:46:56;;;;;;;1999.90;999.90;;;21.70;99.90;;;;;;5007131;28;20440;-68
2023/08/03 10:49:49;;;;;;;1999.90;999.90;;;22.10;99.90;;;;;;4986536;28;20443;-65
2023/08/03 10:52:19;;;;;;;1999.90;999.90;;;22.10;99.90;;;;;;4974560;28;22069;-67
2023/08/03 10:54:48;;;;;;;1999.90;999.90;;;22.10;99.90;;;;;;4976540;28;20434;-67
2023/08/03 10:57:16;;;;;;;1999.90;999.90;;;21.70;99.90;;;;;;4974692;28;20448;-67
2023/08/03 10:59:44;;;;;;;1999.90;999.90;;;21.40;99.90;;;;;;4985687;28;20470;-66
2023/08/03 11:02:13;;;;;;;1999.90;999.90;;;21.50;99.90;;;;;;4978186;28;21001;-66
2023/08/03 11:04:40;;;;;;;1999.90;999.90;;;21.60;99.90;;;;;;4971429;28;20443;-66
2023/08/03 11:07:09;;;;;;;1999.90;999.90;;;21.80;99.90;;;;;;4967066;28;20471;-66
2023/08/03 11:09:36;;;;;;;1999.90;999.90;;;22.00;99.90;;;;;;4976253;28;20955;-66
2023/08/03 11:12:07;;;;;;;1999.90;999.90;;;22.00;99.90;;;;;;4973967;28;20443;-66
2023/08/03 11:14:35;;;;;;;1999.90;999.90;;;21.90;99.90;;;;;;4978881;28;20675;-67
2023/08/03 11:17:02;;;;;;;1999.90;999.90;;;21.80;99.90;;;;;;4988019;28;20434;-65
2023/08/03 11:19:32;;;;;;;1999.90;999.90;;;21.70;99.90;;;;;;4980926;28;20837;-68
2023/08/03 11:22:00;;;;;;;1999.90;999.90;;;21.90;99.90;;;;;;4978076;28;20932;-66
2023/08/03 11:24:29;;;;;;;1999.90;999.90;;;22.10;99.90;;;;;;4988038;28;20442;-66
2023/08/03 11:26:56;;;;;;;1999.90;999.90;;;22.40;99.90;;;;;;4985518;28;20442;-66
2023/08/03 11:29:25;;;;;;;1999.90;999.90;;;22.40;99.90;;;;;;4979976;28;20456;-67
2023/08/03 11:31:52;;;;;;;1999.90;999.90;;;22.30;99.90;;;;;;4979859;28;20914;-67
2023/08/03 11:34:19;;;;;;;1999.90;999.90;;;22.20;99.90;;;;;;4976748;28;20443;-66
2023/08/03 11:36:48;;;;;;;1999.90;999.90;;;22.20;99.90;;;;;;4975072;28;20436;-66
2023/08/03 11:39:15;;;;;;;1999.90;999.90;;;22.40;99.90;;;;;;4972042;28;20478;-67
2023/08/03 11:41:43;;;;;;;1999.90;999.90;;;22.50;99.90;;;;;;4968066;28;20828;-66
2023/08/03 11:44:10;;;;;;;1999.90;999.90;;;22.90;99.90;;;;;;4971730;28;20812;-68
2023/08/03 11:46:38;;;;;;;1999.90;999.90;;;23.10;99.90;;;;;;4966758;28;20443;-66
2023/08/03 11:49:05;;;;;;;1999.90;999.90;;;22.60;99.90;;;;;;4969883;28;20444;-67
2023/08/03 11:51:32;;;;;;;1999.90;999.90;;;23.10;99.90;;;;;;4979269;28;20436;-68
2023/08/03 11:54:03;;;;;;;1999.90;999.90;;;23.20;99.90;;;;;;4978032;28;20948;-64
2023/08/03 11:56:30;;;;;;;1999.90;999.90;;;23.00;99.90;;;;;;4987667;28;20450;-66
2023/08/03 11:58:56;;;;;;;1999.90;999.90;;;22.20;99.90;;;;;;4987079;28;20449;-66
2023/08/03 12:01:26;;;;;;;1999.90;999.90;;;22.10;99.90;;;;;;4975561;28;20430;-66